createdAt,value
2019-02-16T00:01:38.284Z,99.90
2019-02-16T00:04:08.934Z,99.90
2019-02-16T00:06:40.115Z,99.90
2019-02-16T00:09:10.657Z,99.90
2019-02-16T00:11:41.173Z,99.90
2019-02-16T00:14:11.703Z,99.90
2019-02-16T00:16:42.228Z,99.90
2019-02-16T00:19:12.793Z,99.90
2019-02-16T00:21:43.295Z,99.90
2019-02-16T00:24:13.891Z,99.90
2019-02-16T00:26:44.441Z,99.90
2019-02-16T00:29:14.968Z,99.90
2019-02-16T00:31:45.533Z,99.90
2019-02-16T00:34:16.185Z,99.90
2019-02-16T00:36:46.747Z,99.90
2019-02-16T00:39:17.344Z,99.90
2019-02-16T00:41:48.112Z,99.90
2019-02-16T00:44:18.760Z,99.90
2019-02-16T00:46:49.289Z,99.90
2019-02-16T00:49:19.834Z,99.90
2019-02-16T00:51:50.353Z,99.90
2019-02-16T00:54:20.871Z,99.90
2019-02-16T00:56:51.438Z,99.90
2019-02-16T00:59:22.024Z,99.90
2019-02-16T01:01:52.527Z,99.90
2019-02-16T01:04:26.779Z,99.90
2019-02-16T01:06:58.538Z,99.90
2019-02-16T01:09:29.582Z,99.90
2019-02-16T01:12:00.115Z,99.90
2019-02-16T01:14:30.806Z,99.90
2019-02-16T01:17:01.937Z,99.90
2019-02-16T01:19:33.108Z,99.90
2019-02-16T01:22:04.126Z,99.90
2019-02-16T01:24:35.578Z,99.90
2019-02-16T01:27:06.116Z,99.90
2019-02-16T01:29:37.135Z,99.90
2019-02-16T01:32:07.665Z,99.90
2019-02-16T01:34:38.503Z,99.90
2019-02-16T01:37:09.080Z,99.90
2019-02-16T01:39:40.424Z,99.90
2019-02-16T01:42:11.169Z,99.90
2019-02-16T01:44:41.700Z,99.90
2019-02-16T01:47:12.246Z,99.90
2019-02-16T01:49:42.816Z,99.90
2019-02-16T01:52:13.442Z,99.90
2019-02-16T01:54:43.971Z,99.90
2019-02-16T01:57:14.524Z,99.90
2019-02-16T01:59:45.052Z,99.90
2019-02-16T02:02:15.607Z,99.90
2019-02-16T02:04:46.363Z,99.90
2019-02-16T02:07:17.547Z,99.90
2019-02-16T02:09:49.126Z,99.90
2019-02-16T02:12:20.403Z,99.90
2019-02-16T02:14:51.682Z,99.90
2019-02-16T02:17:23.111Z,99.90
2019-02-16T02:19:54.257Z,99.90
2019-02-16T02:22:25.408Z,99.90
2019-02-16T02:24:56.068Z,99.90
2019-02-16T02:27:27.171Z,99.90
2019-02-16T02:29:57.920Z,99.90
2019-02-16T02:32:29.120Z,99.90
2019-02-16T02:34:59.883Z,99.90
2019-02-16T02:37:30.468Z,99.90
2019-02-16T02:40:01.033Z,99.90
2019-02-16T02:42:31.944Z,99.90
2019-02-16T02:45:02.501Z,99.90
2019-02-16T02:47:33.019Z,99.90
2019-02-16T02:50:03.965Z,99.90
2019-02-16T02:52:34.586Z,99.90
2019-02-16T02:55:06.007Z,99.90
2019-02-16T02:57:36.656Z,99.90
2019-02-16T03:00:08.088Z,99.90
2019-02-16T03:02:38.909Z,99.90
2019-02-16T03:05:09.823Z,99.90
2019-02-16T03:07:41.275Z,99.90
2019-02-16T03:10:11.857Z,99.90
2019-02-16T03:12:42.489Z,99.90
2019-02-16T03:15:13.197Z,99.90
2019-02-16T03:17:43.919Z,99.90
2019-02-16T03:20:14.460Z,99.90
2019-02-16T03:23:19.344Z,99.90
2019-02-16T03:26:05.984Z,99.90
2019-02-16T03:29:04.117Z,99.90
2019-02-16T03:32:21.907Z,99.90
2019-02-16T03:35:41.548Z,99.90
2019-02-16T03:38:44.645Z,99.90
2019-02-16T03:41:15.244Z,99.90
2019-02-16T03:43:45.781Z,99.90
2019-02-16T03:46:16.297Z,99.90
2019-02-16T03:48:47.315Z,99.90
2019-02-16T03:51:17.839Z,99.90
2019-02-16T03:53:48.608Z,99.90
2019-02-16T03:56:19.139Z,99.90
2019-02-16T03:58:49.683Z,99.90
2019-02-16T04:01:20.306Z,99.90
2019-02-16T04:03:51.233Z,99.90
2019-02-16T04:06:21.863Z,99.90
2019-02-16T04:08:52.491Z,99.90
2019-02-16T04:11:23.153Z,99.90
2019-02-16T04:13:53.702Z,99.90
2019-02-16T04:16:27.678Z,99.90
2019-02-16T04:18:58.382Z,99.90
2019-02-16T04:21:28.913Z,99.90
2019-02-16T04:23:59.523Z,99.90
2019-02-16T04:26:30.068Z,99.90
2019-02-16T04:29:00.660Z,99.90
2019-02-16T04:31:31.187Z,99.90
2019-02-16T04:34:01.722Z,99.90
2019-02-16T04:36:32.270Z,99.90
2019-02-16T04:39:04.744Z,99.90
2019-02-16T04:41:35.295Z,99.90
2019-02-16T04:44:05.880Z,99.90
2019-02-16T04:46:36.430Z,99.90
2019-02-16T04:49:07.356Z,99.90
2019-02-16T04:51:37.875Z,99.90
2019-02-16T04:54:08.410Z,99.90
2019-02-16T04:56:39.035Z,99.90
2019-02-16T04:59:09.593Z,99.90
2019-02-16T05:01:40.122Z,99.90
2019-02-16T05:04:10.676Z,99.90
2019-02-16T05:06:41.438Z,99.90
2019-02-16T05:09:11.948Z,99.90
2019-02-16T05:11:42.507Z,99.90
2019-02-16T05:14:13.120Z,99.90
2019-02-16T05:16:43.643Z,99.90
2019-02-16T05:19:14.179Z,99.90
2019-02-16T05:21:44.748Z,99.90
2019-02-16T05:24:15.246Z,99.90
2019-02-16T05:26:45.763Z,99.90
2019-02-16T05:29:16.292Z,99.90
2019-02-16T05:31:47.286Z,99.90
2019-02-16T05:34:17.827Z,99.90
2019-02-16T05:36:48.354Z,99.90
2019-02-16T05:39:18.972Z,99.90
2019-02-16T05:41:49.545Z,99.90
2019-02-16T05:44:20.128Z,99.90
2019-02-16T05:46:50.707Z,99.90
2019-02-16T05:49:21.342Z,99.90
2019-02-16T05:51:51.896Z,99.90
2019-02-16T05:54:22.366Z,99.90
2019-02-16T05:56:52.970Z,99.90
2019-02-16T05:59:23.576Z,99.90
2019-02-16T06:01:54.461Z,99.90
2019-02-16T06:04:25.058Z,99.90
2019-02-16T06:06:55.612Z,99.90
2019-02-16T06:09:26.121Z,99.90
2019-02-16T06:11:56.711Z,99.90
2019-02-16T06:14:27.378Z,99.90
2019-02-16T06:16:57.984Z,99.90
2019-02-16T06:19:28.496Z,99.90
2019-02-16T06:21:59.056Z,99.90
2019-02-16T06:24:29.768Z,99.90
2019-02-16T06:27:00.307Z,99.90
2019-02-16T06:29:30.820Z,99.90
2019-02-16T06:32:01.367Z,99.90
2019-02-16T06:34:32.416Z,99.90
2019-02-16T06:37:20.458Z,99.90
2019-02-16T06:39:51.288Z,99.90
2019-02-16T06:42:21.862Z,99.90
2019-02-16T06:44:52.384Z,99.90
2019-02-16T06:47:22.929Z,99.90
2019-02-16T06:49:53.462Z,99.90
2019-02-16T06:52:24.395Z,99.90
2019-02-16T06:54:54.971Z,99.90
2019-02-16T06:57:30.575Z,99.90
2019-02-16T07:00:01.153Z,99.90
2019-02-16T07:02:31.994Z,99.90
2019-02-16T07:05:03.160Z,99.90
2019-02-16T07:07:33.696Z,99.90
2019-02-16T07:10:04.732Z,99.90
2019-02-16T07:12:35.336Z,99.90
2019-02-16T07:15:06.257Z,99.90
2019-02-16T07:17:51.174Z,99.90
2019-02-16T07:20:23.720Z,99.90
2019-02-16T07:22:54.264Z,99.90
2019-02-16T07:25:26.039Z,99.90
2019-02-16T07:27:57.169Z,99.90
2019-02-16T07:30:27.767Z,99.90
2019-02-16T07:32:58.348Z,99.90
2019-02-16T07:35:28.965Z,99.90
2019-02-16T07:37:59.520Z,99.90
2019-02-16T07:40:30.084Z,99.90
2019-02-16T07:43:01.299Z,99.90
2019-02-16T07:45:49.104Z,88.80
2019-02-16T07:48:24.716Z,79.40
2019-02-16T07:51:14.169Z,59.80
2019-02-16T07:53:57.768Z,57.40
2019-02-16T07:56:32.000Z,50.60
2019-02-16T07:59:10.400Z,47.20
2019-02-16T08:01:47.859Z,44.10
2019-02-16T08:04:25.539Z,40.80
2019-02-16T08:07:33.412Z,37.70
2019-02-16T08:10:14.706Z,37.70
2019-02-16T08:13:13.337Z,35.90
2019-02-16T08:15:56.353Z,31.60
2019-02-16T08:19:01.114Z,32.40
2019-02-16T08:21:38.485Z,32.60
2019-02-16T08:24:24.565Z,31.50
2019-02-16T08:27:23.782Z,28.90
2019-02-16T08:30:02.440Z,27.70
2019-02-16T08:33:04.988Z,27.20
2019-02-16T08:35:52.831Z,26.30
2019-02-16T08:38:43.217Z,25.70
2019-02-16T08:41:35.715Z,23.40
2019-02-16T08:44:34.834Z,24.20
2019-02-16T08:47:23.415Z,23.00
2019-02-16T08:50:17.702Z,22.70
2019-02-16T08:53:05.919Z,22.20
2019-02-16T08:55:55.414Z,22.00
2019-02-16T08:58:43.775Z,22.00
2019-02-16T09:01:36.297Z,20.80
2019-02-16T09:04:28.591Z,22.30
2019-02-16T09:07:21.067Z,21.20
2019-02-16T09:10:13.601Z,20.70
2019-02-16T09:13:01.934Z,20.70
2019-02-16T09:15:51.492Z,20.60
2019-02-16T09:18:28.033Z,19.90
2019-02-16T09:21:20.713Z,20.70
2019-02-16T09:23:59.088Z,20.30
2019-02-16T09:27:05.114Z,19.50
2019-02-16T09:30:09.776Z,19.50
2019-02-16T09:32:53.932Z,19.70
2019-02-16T09:35:45.501Z,19.90
2019-02-16T09:38:39.754Z,19.30
2019-02-16T09:41:28.138Z,19.50
2019-02-16T09:44:16.152Z,19.60
2019-02-16T09:47:08.501Z,20.50
2019-02-16T09:49:48.267Z,20.30
2019-02-16T09:52:36.739Z,18.90
2019-02-16T09:55:25.115Z,19.50
2019-02-16T09:58:15.068Z,18.90
2019-02-16T10:00:55.510Z,18.70
2019-02-16T10:03:43.664Z,19.20
2019-02-16T10:06:48.609Z,19.20
2019-02-16T10:09:29.182Z,19.80
2019-02-16T10:12:21.600Z,19.00
2019-02-16T10:15:10.793Z,19.30
2019-02-16T10:17:50.939Z,18.50
2019-02-16T10:20:40.395Z,18.80
2019-02-16T10:23:39.191Z,18.20
2019-02-16T10:26:31.009Z,18.20
2019-02-16T10:29:18.208Z,20.00
2019-02-16T10:32:19.914Z,20.70
2019-02-16T10:35:13.914Z,21.20
2019-02-16T10:38:03.884Z,20.70
2019-02-16T10:40:52.104Z,22.10
2019-02-16T10:43:39.035Z,22.20
2019-02-16T10:46:21.645Z,22.40
2019-02-16T10:49:00.643Z,23.50
2019-02-16T10:51:50.183Z,24.00
2019-02-16T10:54:33.853Z,23.80
2019-02-16T10:57:20.543Z,24.70
2019-02-16T11:00:13.993Z,25.00
2019-02-16T11:03:04.124Z,25.40
2019-02-16T11:05:53.319Z,25.80
2019-02-16T11:08:42.796Z,28.20
2019-02-16T11:11:31.457Z,28.60
2019-02-16T11:14:21.066Z,30.90
2019-02-16T11:17:09.381Z,31.50
2019-02-16T11:20:11.687Z,36.80
2019-02-16T11:22:50.493Z,34.30
2019-02-16T11:25:36.520Z,34.20
2019-02-16T11:28:44.676Z,33.10
2019-02-16T11:31:40.036Z,33.40
2019-02-16T11:34:35.249Z,33.50
2019-02-16T11:37:13.739Z,34.80
2019-02-16T11:39:50.301Z,37.20
2019-02-16T11:42:34.050Z,37.80
2019-02-16T11:45:26.889Z,39.00
2019-02-16T11:48:17.463Z,40.20
2019-02-16T11:50:53.796Z,41.30
2019-02-16T11:53:39.456Z,40.40
2019-02-16T11:56:34.740Z,43.40
2019-02-16T11:59:16.784Z,41.20
2019-02-16T12:02:11.370Z,41.20
2019-02-16T12:05:03.695Z,42.20
2019-02-16T12:08:08.373Z,37.80
2019-02-16T12:10:51.835Z,37.10
2019-02-16T12:13:44.440Z,41.00
2019-02-16T12:16:32.743Z,40.10
2019-02-16T12:19:34.609Z,38.70
2019-02-16T12:22:29.802Z,38.00
2019-02-16T12:25:25.177Z,36.70
2019-02-16T12:28:14.643Z,33.60
2019-02-16T12:31:02.801Z,32.20
2019-02-16T12:34:01.147Z,29.50
2019-02-16T12:36:42.652Z,30.70
2019-02-16T12:39:23.165Z,31.90
2019-02-16T12:42:03.349Z,32.30
2019-02-16T12:44:43.712Z,35.90
2019-02-16T12:47:32.989Z,37.20
2019-02-16T12:50:28.394Z,38.50
2019-02-16T12:53:13.845Z,40.10
2019-02-16T12:55:57.888Z,39.50
2019-02-16T12:58:35.191Z,38.10
2019-02-16T13:01:22.868Z,37.00
2019-02-16T13:04:19.488Z,37.50
2019-02-16T13:07:19.843Z,37.30
2019-02-16T13:10:15.410Z,39.20
2019-02-16T13:13:05.094Z,37.50
2019-02-16T13:16:03.594Z,40.20
2019-02-16T13:18:44.947Z,38.50
2019-02-16T13:21:30.106Z,40.50
2019-02-16T13:24:19.552Z,41.40
2019-02-16T13:27:09.061Z,42.30
2019-02-16T13:30:04.540Z,40.30
2019-02-16T13:32:55.664Z,36.00
2019-02-16T13:35:59.093Z,33.40
2019-02-16T13:38:36.812Z,33.70
2019-02-16T13:41:19.770Z,31.50
2019-02-16T13:44:09.230Z,31.50
2019-02-16T13:46:58.872Z,30.30
2019-02-16T13:49:51.359Z,30.00
2019-02-16T13:52:40.873Z,30.10
2019-02-16T13:55:33.271Z,30.00
2019-02-16T13:58:10.586Z,29.90
2019-02-16T14:01:00.464Z,31.20
2019-02-16T14:03:58.951Z,31.20
2019-02-16T14:06:41.458Z,33.20
2019-02-16T14:09:30.006Z,32.50
2019-02-16T14:12:25.787Z,32.80
2019-02-16T14:15:09.478Z,34.20
2019-02-16T14:17:49.026Z,34.30
2019-02-16T14:20:19.704Z,36.00
2019-02-16T14:22:50.261Z,35.80
2019-02-16T14:25:29.008Z,36.90
2019-02-16T14:28:01.646Z,38.10
2019-02-16T14:30:32.276Z,38.20
2019-02-16T14:33:02.902Z,38.00
2019-02-16T14:35:33.428Z,38.60
2019-02-16T14:38:22.905Z,38.90
2019-02-16T14:40:53.465Z,39.10
2019-02-16T14:43:24.018Z,40.00
2019-02-16T14:45:54.535Z,41.50
2019-02-16T14:48:25.100Z,41.90
2019-02-16T14:50:55.642Z,42.60
2019-02-16T14:53:27.173Z,43.40
2019-02-16T14:55:57.974Z,43.90
2019-02-16T14:58:29.048Z,45.40
2019-02-16T15:01:00.352Z,46.50
2019-02-16T15:03:31.706Z,47.00
2019-02-16T15:06:03.614Z,47.70
2019-02-16T15:08:35.126Z,49.60
2019-02-16T15:11:06.304Z,50.50
2019-02-16T15:13:37.011Z,51.50
2019-02-16T15:16:07.566Z,54.20
2019-02-16T15:18:38.169Z,55.00
2019-02-16T15:21:09.040Z,56.20
2019-02-16T15:23:39.636Z,58.10
2019-02-16T15:26:10.197Z,58.60
2019-02-16T15:28:40.748Z,59.10
2019-02-16T15:31:11.825Z,60.50
2019-02-16T15:33:42.354Z,61.90
2019-02-16T15:36:13.527Z,63.10
2019-02-16T15:38:44.503Z,64.60
2019-02-16T15:41:15.019Z,67.20
2019-02-16T15:43:45.532Z,70.80
2019-02-16T15:46:16.449Z,73.90
2019-02-16T15:48:47.540Z,77.10
2019-02-16T15:51:18.717Z,79.60
2019-02-16T15:53:49.447Z,80.60
2019-02-16T15:56:21.625Z,83.00
2019-02-16T15:58:52.673Z,85.60
2019-02-16T16:01:23.253Z,84.90
2019-02-16T16:03:53.771Z,87.70
2019-02-16T16:06:24.340Z,91.80
2019-02-16T16:09:03.747Z,93.50
2019-02-16T16:11:51.196Z,94.10
2019-02-16T16:14:49.607Z,96.20
2019-02-16T16:17:28.196Z,99.20
2019-02-16T16:20:15.431Z,99.90
2019-02-16T16:23:10.611Z,99.90
2019-02-16T16:25:49.418Z,99.90
2019-02-16T16:28:38.954Z,99.90
2019-02-16T16:31:30.214Z,99.90
2019-02-16T16:34:12.368Z,99.90
2019-02-16T16:37:00.756Z,99.90
2019-02-16T16:39:36.764Z,99.90
2019-02-16T16:42:23.796Z,99.90
2019-02-16T16:45:08.653Z,99.90
2019-02-16T16:48:01.091Z,99.90
2019-02-16T16:51:09.322Z,99.90
2019-02-16T16:53:50.204Z,99.90
2019-02-16T16:56:29.125Z,99.90
2019-02-16T16:59:26.274Z,99.90
2019-02-16T17:02:14.372Z,99.90
2019-02-16T17:05:02.543Z,99.90
2019-02-16T17:07:51.408Z,99.90
2019-02-16T17:10:53.862Z,99.90
2019-02-16T17:13:56.640Z,99.90
2019-02-16T17:16:59.506Z,99.90
2019-02-16T17:19:41.216Z,99.90
2019-02-16T17:22:35.398Z,99.90
2019-02-16T17:25:23.864Z,99.90
2019-02-16T17:28:16.387Z,99.90
2019-02-16T17:30:56.413Z,99.90
2019-02-16T17:33:32.980Z,99.90
2019-02-16T17:36:31.668Z,99.90
2019-02-16T17:39:26.995Z,99.90
2019-02-16T17:42:24.548Z,99.90
2019-02-16T17:45:23.123Z,99.90
2019-02-16T17:48:12.559Z,99.90
2019-02-16T17:50:53.425Z,99.90
2019-02-16T17:53:42.915Z,99.90
2019-02-16T17:56:46.777Z,99.90
2019-02-16T17:59:32.002Z,99.90
2019-02-16T18:02:24.562Z,99.90
2019-02-16T18:05:06.762Z,99.90
2019-02-16T18:08:03.657Z,99.90
2019-02-16T18:10:51.807Z,99.90
2019-02-16T18:13:56.636Z,99.90
2019-02-16T18:16:48.854Z,99.90
2019-02-16T18:19:41.572Z,99.90
2019-02-16T18:22:34.216Z,99.90
2019-02-16T18:25:39.034Z,99.90
2019-02-16T18:28:28.608Z,99.90
2019-02-16T18:31:09.911Z,99.90
2019-02-16T18:33:58.317Z,99.90
2019-02-16T18:36:39.443Z,99.90
2019-02-16T18:39:19.517Z,99.90
2019-02-16T18:42:08.191Z,99.90
2019-02-16T18:44:59.237Z,99.90
2019-02-16T18:47:50.224Z,99.90
2019-02-16T18:50:39.011Z,99.90
2019-02-16T18:53:22.057Z,99.90
2019-02-16T18:56:14.643Z,99.90
2019-02-16T18:59:06.935Z,99.90
2019-02-16T19:01:56.461Z,99.90
2019-02-16T19:04:48.935Z,99.90
2019-02-16T19:07:37.267Z,99.90
2019-02-16T19:10:32.632Z,99.90
2019-02-16T19:13:24.899Z,99.90
2019-02-16T19:16:17.445Z,99.90
2019-02-16T19:19:06.944Z,99.90
2019-02-16T19:21:53.495Z,99.90
2019-02-16T19:24:58.113Z,99.90
2019-02-16T19:28:05.558Z,99.90
2019-02-16T19:30:48.866Z,99.90
2019-02-16T19:33:38.316Z,99.90
2019-02-16T19:36:26.506Z,99.90
2019-02-16T19:39:12.735Z,99.90
2019-02-16T19:41:59.412Z,99.90
2019-02-16T19:44:48.428Z,99.90
2019-02-16T19:47:38.053Z,99.90
2019-02-16T19:50:33.735Z,99.90
2019-02-16T19:53:34.828Z,99.90
2019-02-16T19:56:23.183Z,99.90
2019-02-16T19:59:24.996Z,99.90
2019-02-16T20:02:15.651Z,99.90
2019-02-16T20:05:06.245Z,99.90
2019-02-16T20:07:55.926Z,99.90
2019-02-16T20:10:54.615Z,99.90
2019-02-16T20:13:43.083Z,99.90
2019-02-16T20:16:32.595Z,99.90
2019-02-16T20:19:34.530Z,99.90
2019-02-16T20:22:27.508Z,99.90
2019-02-16T20:25:35.698Z,99.90
2019-02-16T20:28:28.060Z,99.90
2019-02-16T20:31:09.997Z,99.90
2019-02-16T20:33:58.667Z,99.90
2019-02-16T20:36:42.828Z,99.90
2019-02-16T20:39:28.303Z,99.90
2019-02-16T20:42:15.122Z,99.90
2019-02-16T20:45:04.084Z,99.90
2019-02-16T20:47:43.334Z,99.90
2019-02-16T20:50:31.309Z,99.90
2019-02-16T20:53:33.013Z,99.90
2019-02-16T20:56:31.432Z,99.90
2019-02-16T20:59:20.916Z,99.90
2019-02-16T21:02:06.053Z,99.90
2019-02-16T21:05:03.278Z,99.90
2019-02-16T21:08:07.450Z,99.90
2019-02-16T21:10:57.126Z,99.90
2019-02-16T21:13:37.832Z,99.90
2019-02-16T21:16:36.046Z,99.90
2019-02-16T21:19:14.949Z,99.90
2019-02-16T21:21:53.815Z,99.90
2019-02-16T21:24:36.020Z,99.90
2019-02-16T21:27:25.461Z,99.90
2019-02-16T21:30:06.668Z,99.90
2019-02-16T21:32:50.393Z,99.90
2019-02-16T21:35:48.015Z,99.90
2019-02-16T21:39:02.899Z,99.90
2019-02-16T21:41:47.097Z,99.90
2019-02-16T21:44:33.345Z,99.90
2019-02-16T21:47:19.548Z,99.90
2019-02-16T21:50:02.098Z,99.90
2019-02-16T21:53:09.927Z,99.90
2019-02-16T21:56:01.976Z,99.90
2019-02-16T21:58:59.212Z,99.90
2019-02-16T22:01:50.116Z,99.90
2019-02-16T22:04:25.715Z,99.90
2019-02-16T22:07:33.544Z,99.90
2019-02-16T22:10:24.632Z,99.90
2019-02-16T22:13:03.712Z,99.90
2019-02-16T22:15:34.611Z,99.90
2019-02-16T22:18:05.183Z,99.90
2019-02-16T22:20:35.763Z,99.90
2019-02-16T22:23:06.558Z,99.90
2019-02-16T22:25:37.135Z,99.90
2019-02-16T22:28:17.999Z,99.90
2019-02-16T22:30:39.859Z,99.90
2019-02-16T22:33:10.453Z,99.90
2019-02-16T22:35:40.987Z,99.90
2019-02-16T22:38:11.567Z,99.90
2019-02-16T22:40:42.219Z,99.90
2019-02-16T22:43:16.758Z,99.90
2019-02-16T22:45:47.884Z,99.90
2019-02-16T22:48:18.403Z,99.90
2019-02-16T22:50:48.932Z,99.90
2019-02-16T22:53:19.490Z,99.90
2019-02-16T22:55:50.015Z,99.90
2019-02-16T22:58:28.603Z,99.90
2019-02-16T23:00:54.099Z,99.90
2019-02-16T23:03:24.631Z,99.90
2019-02-16T23:05:55.190Z,99.90
2019-02-16T23:08:25.725Z,99.90
2019-02-16T23:10:56.469Z,99.90
2019-02-16T23:13:26.992Z,99.90
2019-02-16T23:15:57.540Z,99.90
2019-02-16T23:18:28.209Z,99.90
2019-02-16T23:20:58.791Z,99.90
2019-02-16T23:23:29.310Z,99.90
2019-02-16T23:26:00.012Z,99.90
2019-02-16T23:28:38.578Z,99.90
2019-02-16T23:31:02.796Z,99.90
2019-02-16T23:33:33.732Z,99.90
2019-02-16T23:36:04.386Z,99.90
2019-02-16T23:38:34.956Z,99.90
2019-02-16T23:41:06.429Z,99.90
2019-02-16T23:43:37.266Z,99.90
2019-02-16T23:46:10.331Z,99.90
2019-02-16T23:48:40.842Z,99.90
2019-02-16T23:51:11.407Z,99.90
2019-02-16T23:53:41.908Z,99.90
2019-02-16T23:56:12.439Z,99.90
2019-02-16T23:58:49.222Z,99.90
